createdAt,value
2023-03-07T00:02:00.334Z,49.14
2023-03-07T00:04:31.973Z,50.26
2023-03-07T00:07:03.555Z,49.94
2023-03-07T00:09:35.748Z,49.78
2023-03-07T00:12:08.561Z,50.03
2023-03-07T00:14:40.224Z,51.53
2023-03-07T00:17:11.834Z,51.84
2023-03-07T00:19:43.885Z,51.34
2023-03-07T00:22:15.464Z,51.04
2023-03-07T00:24:48.535Z,50.62
2023-03-07T00:27:20.166Z,50.30
2023-03-07T00:29:51.833Z,50.92
2023-03-07T00:32:24.201Z,50.47
2023-03-07T00:34:58.667Z,50.98
2023-03-07T00:37:30.327Z,51.46
2023-03-07T00:40:02.099Z,51.41
2023-03-07T00:42:33.790Z,50.76
2023-03-07T00:45:05.948Z,51.35
2023-03-07T00:47:37.624Z,51.85
2023-03-07T00:50:09.834Z,52.33
2023-03-07T00:52:41.680Z,52.43
2023-03-07T00:55:13.622Z,52.13
2023-03-07T00:57:45.346Z,52.95
2023-03-07T01:00:17.293Z,51.81
2023-03-07T01:02:57.468Z,52.29
2023-03-07T01:05:29.099Z,52.77
2023-03-07T01:08:00.996Z,53.59
2023-03-07T01:10:33.225Z,53.77
2023-03-07T01:13:05.378Z,53.87
2023-03-07T01:15:38.474Z,54.69
2023-03-07T01:18:11.341Z,52.54
2023-03-07T01:20:43.776Z,53.10
2023-03-07T01:23:15.409Z,54.09
2023-03-07T01:25:47.247Z,54.88
2023-03-07T01:28:19.025Z,55.37
2023-03-07T01:31:00.724Z,53.60
2023-03-07T01:33:32.761Z,53.63
2023-03-07T01:36:14.021Z,53.45
2023-03-07T01:38:49.756Z,53.84
2023-03-07T01:41:22.392Z,53.79
2023-03-07T01:43:59.922Z,53.19
2023-03-07T01:46:47.497Z,54.59
2023-03-07T01:49:28.747Z,54.52
2023-03-07T01:52:13.661Z,54.30
2023-03-07T01:54:55.927Z,53.88
2023-03-07T01:57:34.765Z,53.82
2023-03-07T02:00:09.676Z,54.66
2023-03-07T02:03:00.063Z,54.27
2023-03-07T02:05:35.868Z,54.58
2023-03-07T02:08:12.213Z,54.16
2023-03-07T02:10:44.304Z,54.88
2023-03-07T02:13:16.864Z,56.63
2023-03-07T02:15:48.998Z,54.67
2023-03-07T02:18:26.788Z,54.52
2023-03-07T02:21:05.622Z,53.95
2023-03-07T02:24:00.435Z,53.08
2023-03-07T02:26:32.102Z,53.37
2023-03-07T02:29:04.461Z,53.52
2023-03-07T02:31:37.295Z,54.16
2023-03-07T02:34:27.875Z,54.83
2023-03-07T02:37:12.529Z,55.96
2023-03-07T02:39:46.804Z,55.10
2023-03-07T02:42:29.361Z,55.99
2023-03-07T02:45:11.498Z,54.64
2023-03-07T02:47:46.152Z,53.86
2023-03-07T02:50:21.089Z,57.60
2023-03-07T02:52:56.671Z,55.42
2023-03-07T02:55:28.802Z,55.77
2023-03-07T02:58:04.891Z,54.82
2023-03-07T03:00:36.643Z,55.18
2023-03-07T03:03:08.765Z,54.40
2023-03-07T03:05:40.562Z,53.71
2023-03-07T03:08:12.454Z,53.48
2023-03-07T03:10:44.565Z,54.26
2023-03-07T03:13:17.654Z,55.47
2023-03-07T03:15:54.867Z,56.10
2023-03-07T03:18:30.532Z,56.35
2023-03-07T03:21:08.993Z,55.36
2023-03-07T03:23:40.904Z,54.46
2023-03-07T03:26:14.243Z,54.32
2023-03-07T03:28:46.199Z,53.93
2023-03-07T03:31:18.201Z,54.16
2023-03-07T03:33:49.832Z,54.58
2023-03-07T03:36:22.341Z,55.73
2023-03-07T03:38:56.853Z,55.87
2023-03-07T03:41:28.600Z,54.82
2023-03-07T03:44:00.649Z,56.50
2023-03-07T03:46:35.483Z,55.41
2023-03-07T03:49:07.715Z,55.01
2023-03-07T03:51:39.979Z,55.61
2023-03-07T03:54:11.634Z,56.93
2023-03-07T03:56:43.381Z,56.39
2023-03-07T03:59:15.113Z,55.27
2023-03-07T04:01:46.959Z,55.76
2023-03-07T04:04:19.107Z,55.08
2023-03-07T04:06:50.760Z,55.37
2023-03-07T04:09:22.411Z,55.31
2023-03-07T04:11:54.615Z,54.82
2023-03-07T04:14:26.324Z,56.53
2023-03-07T04:16:58.008Z,54.79
2023-03-07T04:19:29.711Z,55.51
2023-03-07T04:22:03.096Z,56.22
2023-03-07T04:24:34.839Z,57.06
2023-03-07T04:27:06.942Z,57.13
2023-03-07T04:29:40.904Z,55.75
2023-03-07T04:32:24.953Z,57.11
2023-03-07T04:34:56.605Z,57.19
2023-03-07T04:37:28.218Z,56.17
2023-03-07T04:40:00.010Z,57.05
2023-03-07T04:42:31.645Z,56.47
2023-03-07T04:45:05.634Z,56.16
2023-03-07T04:47:37.256Z,56.17
2023-03-07T04:50:09.494Z,56.82
2023-03-07T04:52:42.260Z,55.88
2023-03-07T04:55:13.962Z,56.38
2023-03-07T04:57:46.468Z,57.24
2023-03-07T05:00:20.032Z,56.63
2023-03-07T05:02:56.539Z,55.90
2023-03-07T05:05:28.336Z,56.33
2023-03-07T05:08:00.048Z,55.86
2023-03-07T05:10:34.013Z,56.72
2023-03-07T05:13:07.884Z,57.45
2023-03-07T05:15:39.598Z,55.90
2023-03-07T05:18:11.533Z,55.51
2023-03-07T05:20:43.172Z,57.75
2023-03-07T05:23:14.920Z,55.75
2023-03-07T05:25:46.717Z,56.86
2023-03-07T05:28:19.053Z,57.21
2023-03-07T05:30:51.854Z,59.91
2023-03-07T05:33:23.472Z,58.07
2023-03-07T05:35:59.467Z,56.48
2023-03-07T05:38:31.233Z,56.81
2023-03-07T05:41:02.932Z,56.02
2023-03-07T05:43:34.686Z,56.33
2023-03-07T05:46:07.061Z,56.30
2023-03-07T05:48:38.846Z,56.51
2023-03-07T05:51:10.533Z,56.31
2023-03-07T05:53:42.371Z,57.54
2023-03-07T05:56:14.189Z,56.02
2023-03-07T05:58:46.493Z,56.74
2023-03-07T06:01:18.627Z,55.55
2023-03-07T06:03:50.581Z,55.02
2023-03-07T06:06:22.468Z,55.38
2023-03-07T06:08:54.707Z,56.75
2023-03-07T06:11:26.630Z,57.43
2023-03-07T06:13:59.206Z,56.03
2023-03-07T06:16:30.915Z,56.51
2023-03-07T06:19:05.504Z,55.14
2023-03-07T06:21:37.517Z,54.61
2023-03-07T06:24:09.592Z,53.57
2023-03-07T06:26:41.287Z,54.22
2023-03-07T06:29:13.791Z,53.22
2023-03-07T06:31:45.714Z,53.54
2023-03-07T06:34:17.658Z,52.51
2023-03-07T06:36:50.812Z,52.76
2023-03-07T06:39:22.659Z,53.90
2023-03-07T06:41:57.454Z,54.39
2023-03-07T06:44:29.111Z,53.09
2023-03-07T06:47:00.741Z,52.72
2023-03-07T06:49:32.456Z,52.49
2023-03-07T06:52:04.226Z,53.61
2023-03-07T06:54:36.669Z,53.00
2023-03-07T06:57:08.676Z,52.68
2023-03-07T06:59:40.913Z,47.88
2023-03-07T07:02:14.509Z,41.65
2023-03-07T07:04:46.323Z,37.90
2023-03-07T07:07:18.865Z,35.95
2023-03-07T07:09:51.844Z,34.10
2023-03-07T07:12:27.216Z,34.81
2023-03-07T07:15:00.187Z,34.74
2023-03-07T07:17:34.977Z,31.59
2023-03-07T07:20:08.001Z,30.18
2023-03-07T07:22:39.752Z,28.04
2023-03-07T07:25:11.429Z,28.60
2023-03-07T07:27:43.607Z,26.74
2023-03-07T07:30:15.536Z,27.80
2023-03-07T07:32:47.645Z,26.72
2023-03-07T07:35:19.375Z,25.36
2023-03-07T07:37:52.067Z,25.54
2023-03-07T07:40:23.735Z,27.44
2023-03-07T07:42:55.548Z,25.05
2023-03-07T07:45:49.792Z,24.55
2023-03-07T07:48:24.548Z,25.83
2023-03-07T07:51:01.590Z,24.46
2023-03-07T07:53:34.581Z,25.27
2023-03-07T07:56:06.553Z,25.71
2023-03-07T07:58:38.654Z,24.95
2023-03-07T08:01:20.112Z,29.02
2023-03-07T08:03:52.346Z,28.34
2023-03-07T08:06:26.870Z,27.20
2023-03-07T08:08:58.683Z,25.81
2023-03-07T08:11:30.256Z,27.42
2023-03-07T08:14:02.737Z,26.47
2023-03-07T08:16:34.395Z,25.85
2023-03-07T08:19:06.028Z,27.13
2023-03-07T08:21:37.641Z,26.83
2023-03-07T08:24:09.271Z,26.23
2023-03-07T08:26:41.112Z,29.13
2023-03-07T08:29:13.390Z,26.22
2023-03-07T08:31:46.208Z,26.68
2023-03-07T08:34:17.808Z,28.38
2023-03-07T08:36:49.369Z,29.28
2023-03-07T08:39:21.025Z,29.46
2023-03-07T08:41:52.702Z,30.19
2023-03-07T08:44:24.415Z,28.47
2023-03-07T08:46:56.075Z,29.75
2023-03-07T08:49:27.773Z,27.38
2023-03-07T08:51:59.423Z,27.67
2023-03-07T08:54:31.147Z,25.56
2023-03-07T08:57:02.795Z,24.25
2023-03-07T08:59:34.450Z,27.43
2023-03-07T09:02:06.882Z,27.67
2023-03-07T09:04:39.122Z,26.55
2023-03-07T09:07:10.945Z,26.41
2023-03-07T09:09:42.937Z,25.08
2023-03-07T09:12:15.182Z,25.83
2023-03-07T09:14:48.568Z,25.14
2023-03-07T09:17:20.497Z,25.49
2023-03-07T09:19:52.497Z,28.11
2023-03-07T09:22:24.315Z,29.83
2023-03-07T09:24:56.276Z,30.63
2023-03-07T09:27:27.996Z,27.82
2023-03-07T09:29:59.869Z,27.49
2023-03-07T09:32:34.811Z,28.24
2023-03-07T09:35:07.178Z,28.34
2023-03-07T09:37:38.904Z,28.40
2023-03-07T09:40:21.096Z,30.13
2023-03-07T09:43:17.109Z,29.12
2023-03-07T09:46:04.921Z,27.11
2023-03-07T09:49:06.882Z,26.45
2023-03-07T09:51:42.472Z,27.69
2023-03-07T09:54:21.173Z,29.87
2023-03-07T09:56:58.148Z,30.04
2023-03-07T09:59:46.629Z,30.62
2023-03-07T10:02:26.047Z,32.41
2023-03-07T10:05:11.424Z,32.19
2023-03-07T10:07:43.172Z,35.76
2023-03-07T10:10:23.544Z,37.92
2023-03-07T10:13:22.797Z,38.42
2023-03-07T10:16:01.308Z,37.45
2023-03-07T10:18:45.076Z,38.66
2023-03-07T10:21:23.077Z,39.50
2023-03-07T10:24:14.756Z,38.26
2023-03-07T10:26:57.311Z,38.95
2023-03-07T10:29:37.518Z,39.45
2023-03-07T10:32:52.598Z,38.70
2023-03-07T10:35:42.509Z,38.65
2023-03-07T10:38:59.585Z,37.79
2023-03-07T10:41:31.276Z,39.21
2023-03-07T10:44:02.948Z,39.27
2023-03-07T10:46:38.018Z,39.17
2023-03-07T10:49:24.522Z,41.34
2023-03-07T10:52:05.233Z,40.60
2023-03-07T10:54:38.418Z,41.99
2023-03-07T10:57:12.994Z,42.48
2023-03-07T10:59:48.906Z,42.95
2023-03-07T11:02:34.320Z,44.34
2023-03-07T11:05:30.260Z,44.51
2023-03-07T11:08:29.326Z,41.59
2023-03-07T11:11:03.424Z,42.29
2023-03-07T11:13:35.074Z,43.48
2023-03-07T11:16:19.725Z,42.69
2023-03-07T11:18:51.619Z,41.53
2023-03-07T11:21:34.942Z,39.67
2023-03-07T11:24:24.621Z,41.03
2023-03-07T11:26:59.137Z,42.35
2023-03-07T11:29:30.899Z,41.00
2023-03-07T11:32:18.631Z,43.44
2023-03-07T11:34:59.590Z,45.55
2023-03-07T11:37:46.565Z,46.45
2023-03-07T11:40:30.374Z,46.91
2023-03-07T11:43:20.076Z,48.12
2023-03-07T11:46:11.718Z,48.70
2023-03-07T11:49:22.221Z,48.13
2023-03-07T11:52:05.932Z,47.65
2023-03-07T11:54:59.273Z,47.29
2023-03-07T11:57:30.815Z,48.47
2023-03-07T12:00:20.263Z,46.94
2023-03-07T12:03:04.235Z,44.19
2023-03-07T12:06:01.077Z,44.31
2023-03-07T12:08:51.564Z,41.02
2023-03-07T12:11:57.772Z,40.39
2023-03-07T12:14:52.389Z,40.78
2023-03-07T12:17:44.029Z,40.52
2023-03-07T12:21:01.398Z,39.67
2023-03-07T12:23:44.186Z,40.63
2023-03-07T12:26:23.799Z,40.95
2023-03-07T12:29:06.987Z,41.45
2023-03-07T12:31:50.291Z,40.79
2023-03-07T12:34:33.532Z,39.10
2023-03-07T12:37:09.150Z,39.95
2023-03-07T12:39:43.442Z,41.69
2023-03-07T12:42:23.948Z,40.43
2023-03-07T12:45:08.202Z,40.17
2023-03-07T12:48:12.279Z,40.44
2023-03-07T12:51:11.189Z,39.97
2023-03-07T12:53:57.265Z,38.26
2023-03-07T12:56:44.264Z,38.58
2023-03-07T12:59:17.066Z,37.95
2023-03-07T13:02:10.559Z,38.17
2023-03-07T13:04:43.237Z,36.75
2023-03-07T13:07:28.088Z,36.48
2023-03-07T13:10:06.031Z,36.58
2023-03-07T13:12:40.549Z,35.28
2023-03-07T13:15:25.982Z,36.43
2023-03-07T13:18:00.543Z,37.58
2023-03-07T13:20:41.988Z,36.92
2023-03-07T13:23:24.225Z,37.82
2023-03-07T13:25:59.666Z,37.95
2023-03-07T13:28:41.636Z,36.73
2023-03-07T13:31:26.515Z,35.20
2023-03-07T13:34:36.660Z,33.19
2023-03-07T13:37:46.269Z,33.58
2023-03-07T13:40:26.317Z,34.46
2023-03-07T13:42:58.037Z,35.82
2023-03-07T13:45:38.703Z,34.91
2023-03-07T13:48:13.353Z,35.00
2023-03-07T13:50:45.063Z,35.34
2023-03-07T13:53:19.342Z,35.98
2023-03-07T13:56:09.543Z,36.62
2023-03-07T13:59:03.633Z,37.30
2023-03-07T14:01:48.127Z,37.01
2023-03-07T14:04:39.389Z,37.20
2023-03-07T14:07:40.131Z,37.73
2023-03-07T14:10:32.529Z,37.80
2023-03-07T14:13:38.348Z,37.29
2023-03-07T14:16:23.088Z,37.82
2023-03-07T14:19:09.854Z,36.91
2023-03-07T14:21:53.541Z,38.40
2023-03-07T14:24:31.576Z,39.83
2023-03-07T14:27:11.287Z,40.58
2023-03-07T14:29:51.998Z,41.02
2023-03-07T14:32:30.385Z,39.69
2023-03-07T14:35:02.167Z,40.25
2023-03-07T14:37:33.915Z,40.12
2023-03-07T14:40:26.947Z,39.75
2023-03-07T14:43:20.553Z,39.79
2023-03-07T14:46:21.558Z,40.06
2023-03-07T14:49:26.987Z,40.33
2023-03-07T14:51:59.010Z,40.62
2023-03-07T14:54:37.172Z,41.57
2023-03-07T14:57:24.190Z,42.54
2023-03-07T15:00:04.019Z,42.43
2023-03-07T15:02:35.820Z,42.89
2023-03-07T15:05:15.655Z,43.41
2023-03-07T15:07:48.289Z,43.90
2023-03-07T15:10:31.328Z,44.18
2023-03-07T15:13:13.756Z,44.66
2023-03-07T15:15:51.768Z,44.17
2023-03-07T15:18:33.682Z,44.51
2023-03-07T15:21:12.882Z,45.09
2023-03-07T15:23:52.519Z,45.42
2023-03-07T15:26:26.576Z,45.58
2023-03-07T15:29:01.560Z,46.10
2023-03-07T15:31:59.163Z,46.85
2023-03-07T15:34:37.448Z,47.79
2023-03-07T15:37:26.206Z,49.59
2023-03-07T15:40:21.609Z,49.51
2023-03-07T15:42:56.059Z,49.43
2023-03-07T15:45:34.981Z,51.80
2023-03-07T15:48:52.858Z,54.17
2023-03-07T15:51:34.172Z,55.83
2023-03-07T15:54:24.310Z,58.62
2023-03-07T15:57:00.176Z,58.50
2023-03-07T15:59:37.283Z,59.27
2023-03-07T16:02:31.089Z,59.51
2023-03-07T16:05:24.986Z,61.52
2023-03-07T16:07:57.653Z,62.93
2023-03-07T16:10:31.434Z,63.06
2023-03-07T16:13:03.122Z,62.08
2023-03-07T16:15:34.722Z,64.07
2023-03-07T16:18:08.293Z,62.21
2023-03-07T16:20:40.084Z,62.76
2023-03-07T16:23:13.464Z,62.28
2023-03-07T16:25:45.173Z,63.13
2023-03-07T16:28:16.929Z,62.37
2023-03-07T16:30:48.842Z,62.68
2023-03-07T16:33:20.495Z,61.38
2023-03-07T16:35:52.244Z,60.75
2023-03-07T16:38:23.881Z,61.45
2023-03-07T16:40:56.802Z,62.30
2023-03-07T16:43:36.077Z,62.40
2023-03-07T16:46:18.609Z,63.15
2023-03-07T16:48:50.274Z,63.03
2023-03-07T16:51:24.465Z,63.29
2023-03-07T16:53:56.121Z,66.41
2023-03-07T16:56:35.133Z,68.18
2023-03-07T16:59:07.600Z,68.68
2023-03-07T17:01:40.680Z,69.12
2023-03-07T17:04:12.367Z,69.60
2023-03-07T17:06:44.347Z,70.33
2023-03-07T17:09:16.575Z,70.75
2023-03-07T17:11:51.691Z,70.99
2023-03-07T17:14:23.333Z,70.73
2023-03-07T17:16:55.362Z,70.81
2023-03-07T17:19:30.232Z,71.17
2023-03-07T17:22:02.583Z,72.13
2023-03-07T17:24:34.206Z,73.50
2023-03-07T17:27:06.310Z,73.23
2023-03-07T17:29:52.225Z,73.21
2023-03-07T17:32:23.995Z,73.64
2023-03-07T17:34:55.655Z,73.97
2023-03-07T17:37:27.510Z,74.14
2023-03-07T17:39:59.399Z,73.84
2023-03-07T17:42:31.002Z,74.69
2023-03-07T17:45:04.491Z,72.80
2023-03-07T17:47:36.238Z,72.87
2023-03-07T17:50:09.528Z,71.88
2023-03-07T17:52:41.158Z,72.65
2023-03-07T17:55:15.301Z,73.50
2023-03-07T17:57:47.274Z,73.48
2023-03-07T18:00:20.943Z,73.48
2023-03-07T18:02:52.894Z,74.45
2023-03-07T18:05:24.648Z,73.17
2023-03-07T18:07:56.387Z,72.89
2023-03-07T18:10:28.028Z,73.75
2023-03-07T18:12:59.740Z,72.49
2023-03-07T18:15:31.448Z,71.39
2023-03-07T18:18:03.338Z,71.95
2023-03-07T18:20:35.047Z,70.32
2023-03-07T18:23:06.673Z,72.45
2023-03-07T18:25:38.412Z,71.25
2023-03-07T18:28:10.040Z,71.23
2023-03-07T18:30:41.793Z,71.33
2023-03-07T18:33:13.588Z,71.84
2023-03-07T18:35:45.635Z,71.96
2023-03-07T18:38:17.441Z,72.67
2023-03-07T18:40:49.253Z,72.54
2023-03-07T18:43:21.270Z,72.27
2023-03-07T18:45:53.384Z,72.43
2023-03-07T18:48:25.490Z,71.85
2023-03-07T18:51:09.051Z,73.34
2023-03-07T18:53:41.439Z,71.95
2023-03-07T18:56:16.277Z,71.12
2023-03-07T18:58:48.806Z,71.49
2023-03-07T19:01:30.134Z,71.64
2023-03-07T19:04:04.534Z,70.92
2023-03-07T19:06:39.545Z,69.53
2023-03-07T19:09:17.710Z,69.06
2023-03-07T19:11:49.608Z,69.10
2023-03-07T19:14:21.453Z,68.63
2023-03-07T19:16:53.512Z,67.51
2023-03-07T19:19:25.305Z,68.27
2023-03-07T19:21:57.002Z,69.34
2023-03-07T19:24:28.636Z,68.74
2023-03-07T19:27:00.270Z,68.85
2023-03-07T19:29:32.415Z,68.86
2023-03-07T19:32:04.230Z,67.67
2023-03-07T19:34:36.039Z,68.79
2023-03-07T19:37:10.044Z,68.12
2023-03-07T19:39:42.108Z,68.00
2023-03-07T19:42:13.948Z,68.07
2023-03-07T19:44:45.643Z,68.61
2023-03-07T19:47:17.335Z,68.84
2023-03-07T19:49:49.277Z,68.91
2023-03-07T19:52:23.356Z,69.09
2023-03-07T19:54:55.238Z,68.47
2023-03-07T19:57:27.071Z,69.14
2023-03-07T19:59:58.696Z,68.94
2023-03-07T20:02:31.585Z,68.29
2023-03-07T20:05:03.641Z,68.53
2023-03-07T20:07:35.868Z,67.78
2023-03-07T20:10:09.031Z,67.24
2023-03-07T20:12:40.669Z,68.63
2023-03-07T20:15:12.371Z,67.62
2023-03-07T20:17:43.983Z,69.01
2023-03-07T20:20:15.655Z,68.57
2023-03-07T20:22:47.360Z,68.54
2023-03-07T20:25:19.031Z,69.83
2023-03-07T20:27:50.671Z,70.44
2023-03-07T20:30:22.553Z,70.24
2023-03-07T20:32:55.798Z,69.61
2023-03-07T20:35:27.721Z,70.01
2023-03-07T20:37:59.579Z,69.95
2023-03-07T20:40:31.317Z,70.39
2023-03-07T20:43:03.091Z,69.87
2023-03-07T20:45:34.736Z,68.77
2023-03-07T20:48:06.597Z,67.57
2023-03-07T20:50:38.472Z,67.50
2023-03-07T20:53:10.124Z,66.64
2023-03-07T20:55:41.940Z,68.51
2023-03-07T20:58:13.577Z,67.67
2023-03-07T21:00:45.357Z,65.75
2023-03-07T21:03:17.143Z,66.31
2023-03-07T21:05:53.950Z,67.60
2023-03-07T21:08:26.382Z,67.22
2023-03-07T21:11:03.385Z,67.18
2023-03-07T21:13:37.944Z,66.86
2023-03-07T21:16:16.048Z,67.08
2023-03-07T21:18:48.325Z,66.19
2023-03-07T21:21:21.553Z,66.73
2023-03-07T21:23:53.320Z,66.68
2023-03-07T21:26:28.227Z,66.93
2023-03-07T21:29:00.450Z,67.85
2023-03-07T21:31:34.647Z,68.19
2023-03-07T21:34:11.161Z,67.07
2023-03-07T21:36:44.111Z,66.77
2023-03-07T21:39:15.765Z,67.36
2023-03-07T21:41:48.558Z,67.31
2023-03-07T21:44:20.561Z,66.79
2023-03-07T21:46:52.560Z,65.82
2023-03-07T21:49:24.321Z,65.30
2023-03-07T21:51:56.264Z,65.32
2023-03-07T21:54:28.029Z,65.59
2023-03-07T21:56:59.783Z,64.46
2023-03-07T21:59:31.452Z,64.63
2023-03-07T22:02:03.190Z,64.36
2023-03-07T22:04:34.978Z,64.99
2023-03-07T22:07:07.000Z,65.01
2023-03-07T22:09:38.843Z,64.53
2023-03-07T22:12:10.511Z,64.99
2023-03-07T22:14:42.144Z,65.13
2023-03-07T22:17:13.822Z,65.25
2023-03-07T22:19:45.423Z,64.84
2023-03-07T22:22:17.002Z,64.52
2023-03-07T22:24:48.971Z,64.35
2023-03-07T22:27:20.688Z,63.74
2023-03-07T22:29:52.475Z,64.85
2023-03-07T22:32:24.705Z,64.96
2023-03-07T22:34:56.365Z,66.08
2023-03-07T22:37:27.994Z,64.34
2023-03-07T22:39:59.594Z,65.50
2023-03-07T22:42:31.315Z,66.80
2023-03-07T22:45:04.543Z,65.83
2023-03-07T22:47:36.975Z,65.48
2023-03-07T22:50:09.052Z,65.07
2023-03-07T22:52:40.659Z,62.29
2023-03-07T22:55:12.396Z,63.85
2023-03-07T22:57:44.000Z,65.37
2023-03-07T23:00:16.028Z,66.23
2023-03-07T23:02:47.621Z,66.59
2023-03-07T23:05:19.303Z,67.14
2023-03-07T23:07:50.980Z,68.74
2023-03-07T23:10:22.684Z,68.00
2023-03-07T23:12:54.403Z,67.35
2023-03-07T23:15:26.164Z,68.04
2023-03-07T23:17:58.117Z,68.52
2023-03-07T23:20:29.719Z,68.58
2023-03-07T23:23:01.333Z,69.74
2023-03-07T23:25:33.388Z,68.98
2023-03-07T23:28:05.185Z,69.49
2023-03-07T23:30:39.284Z,69.30
2023-03-07T23:33:10.930Z,69.10
2023-03-07T23:35:42.757Z,69.92
2023-03-07T23:38:15.844Z,70.37
2023-03-07T23:40:47.505Z,69.99
2023-03-07T23:43:19.271Z,69.42
2023-03-07T23:45:50.929Z,68.49
2023-03-07T23:48:22.527Z,68.83
2023-03-07T23:50:54.092Z,69.46
2023-03-07T23:53:25.681Z,69.05
2023-03-07T23:55:57.279Z,67.01
2023-03-07T23:58:28.891Z,66.62
